sensor_id;sensor_type;location;lat;lon;timestamp;P1;durP1;ratioP1;P2;durP2;ratioP2
14394;SDS011;7282;49.204;10.652;2023-03-11T00:02:12;1.90;;;1.80;;
14394;SDS011;7282;49.204;10.652;2023-03-11T00:04:38;1.77;;;1.67;;
14394;SDS011;7282;49.204;10.652;2023-03-11T00:07:10;1.93;;;1.83;;
14394;SDS011;7282;49.204;10.652;2023-03-11T00:09:34;2.20;;;2.10;;
14394;SDS011;7282;49.204;10.652;2023-03-11T00:12:01;2.10;;;1.87;;
14394;SDS011;7282;49.204;10.652;2023-03-11T00:14:29;1.80;;;1.70;;
14394;SDS011;7282;49.204;10.652;2023-03-11T00:16:56;1.90;;;1.80;;
14394;SDS011;7282;49.204;10.652;2023-03-11T00:19:23;1.90;;;1.80;;
14394;SDS011;7282;49.204;10.652;2023-03-11T00:21:49;1.90;;;1.80;;
14394;SDS011;7282;49.204;10.652;2023-03-11T00:24:16;2.57;;;1.93;;
14394;SDS011;7282;49.204;10.652;2023-03-11T00:26:43;2.23;;;2.07;;
14394;SDS011;7282;49.204;10.652;2023-03-11T00:29:09;2.23;;;2.03;;
14394;SDS011;7282;49.204;10.652;2023-03-11T00:31:36;1.93;;;1.83;;
14394;SDS011;7282;49.204;10.652;2023-03-11T00:34:03;2.10;;;1.90;;
14394;SDS011;7282;49.204;10.652;2023-03-11T00:36:30;2.00;;;1.90;;
14394;SDS011;7282;49.204;10.652;2023-03-11T00:38:59;2.03;;;1.93;;
14394;SDS011;7282;49.204;10.652;2023-03-11T00:41:27;1.90;;;1.80;;
14394;SDS011;7282;49.204;10.652;2023-03-11T00:43:54;2.00;;;1.90;;
14394;SDS011;7282;49.204;10.652;2023-03-11T00:46:20;2.03;;;1.93;;
14394;SDS011;7282;49.204;10.652;2023-03-11T00:48:49;2.33;;;2.23;;
14394;SDS011;7282;49.204;10.652;2023-03-11T00:51:15;2.20;;;2.00;;
14394;SDS011;7282;49.204;10.652;2023-03-11T00:53:42;2.37;;;2.17;;
14394;SDS011;7282;49.204;10.652;2023-03-11T00:56:10;2.77;;;2.20;;
14394;SDS011;7282;49.204;10.652;2023-03-11T00:58:37;2.03;;;1.93;;
14394;SDS011;7282;49.204;10.652;2023-03-11T01:01:08;2.30;;;2.10;;
14394;SDS011;7282;49.204;10.652;2023-03-11T01:03:35;2.00;;;1.90;;
14394;SDS011;7282;49.204;10.652;2023-03-11T01:06:02;2.10;;;1.90;;
14394;SDS011;7282;49.204;10.652;2023-03-11T01:08:28;2.10;;;2.00;;
14394;SDS011;7282;49.204;10.652;2023-03-11T01:10:56;2.43;;;2.20;;
14394;SDS011;7282;49.204;10.652;2023-03-11T01:13:24;2.20;;;2.10;;
14394;SDS011;7282;49.204;10.652;2023-03-11T01:15:51;2.47;;;2.20;;
14394;SDS011;7282;49.204;10.652;2023-03-11T01:18:18;2.10;;;2.00;;
14394;SDS011;7282;49.204;10.652;2023-03-11T01:20:45;2.17;;;2.00;;
14394;SDS011;7282;49.204;10.652;2023-03-11T01:23:13;2.40;;;2.20;;
14394;SDS011;7282;49.204;10.652;2023-03-11T01:25:40;2.43;;;2.23;;
14394;SDS011;7282;49.204;10.652;2023-03-11T01:28:06;2.00;;;1.90;;
14394;SDS011;7282;49.204;10.652;2023-03-11T01:30:34;2.67;;;2.47;;
14394;SDS011;7282;49.204;10.652;2023-03-11T01:33:01;2.43;;;2.03;;
14394;SDS011;7282;49.204;10.652;2023-03-11T01:35:29;2.10;;;2.00;;
14394;SDS011;7282;49.204;10.652;2023-03-11T01:37:56;2.10;;;1.90;;
14394;SDS011;7282;49.204;10.652;2023-03-11T01:40:28;1.90;;;1.80;;
14394;SDS011;7282;49.204;10.652;2023-03-11T01:42:54;2.10;;;1.90;;
14394;SDS011;7282;49.204;10.652;2023-03-11T01:45:40;1.90;;;1.80;;
14394;SDS011;7282;49.204;10.652;2023-03-11T01:48:08;1.90;;;1.80;;
14394;SDS011;7282;49.204;10.652;2023-03-11T01:50:37;2.23;;;2.03;;
14394;SDS011;7282;49.204;10.652;2023-03-11T01:53:03;2.10;;;2.00;;
14394;SDS011;7282;49.204;10.652;2023-03-11T01:55:31;2.13;;;1.93;;
14394;SDS011;7282;49.204;10.652;2023-03-11T01:57:58;2.00;;;1.90;;
14394;SDS011;7282;49.204;10.652;2023-03-11T02:00:25;2.40;;;1.90;;
14394;SDS011;7282;49.204;10.652;2023-03-11T02:02:53;1.80;;;1.70;;
14394;SDS011;7282;49.204;10.652;2023-03-11T02:05:21;1.90;;;1.80;;
14394;SDS011;7282;49.204;10.652;2023-03-11T02:07:48;2.00;;;1.90;;
14394;SDS011;7282;49.204;10.652;2023-03-11T02:10:15;1.83;;;1.73;;
14394;SDS011;7282;49.204;10.652;2023-03-11T02:12:42;2.20;;;1.90;;
14394;SDS011;7282;49.204;10.652;2023-03-11T02:15:09;2.07;;;1.80;;
14394;SDS011;7282;49.204;10.652;2023-03-11T02:17:37;2.33;;;2.23;;
14394;SDS011;7282;49.204;10.652;2023-03-11T02:22:50;2.10;;;2.00;;
14394;SDS011;7282;49.204;10.652;2023-03-11T02:25:21;2.27;;;2.03;;
14394;SDS011;7282;49.204;10.652;2023-03-11T02:27:48;2.00;;;1.90;;
14394;SDS011;7282;49.204;10.652;2023-03-11T02:30:16;2.17;;;2.07;;
14394;SDS011;7282;49.204;10.652;2023-03-11T02:32:43;2.17;;;2.07;;
14394;SDS011;7282;49.204;10.652;2023-03-11T02:35:12;3.67;;;2.17;;
14394;SDS011;7282;49.204;10.652;2023-03-11T02:37:49;2.10;;;2.00;;
14394;SDS011;7282;49.204;10.652;2023-03-11T02:40:26;1.90;;;1.80;;
14394;SDS011;7282;49.204;10.652;2023-03-11T02:42:41;2.77;;;2.00;;
14394;SDS011;7282;49.204;10.652;2023-03-11T02:45:09;2.30;;;2.10;;
14394;SDS011;7282;49.204;10.652;2023-03-11T02:47:37;2.50;;;2.30;;
14394;SDS011;7282;49.204;10.652;2023-03-11T02:50:05;2.00;;;1.90;;
14394;SDS011;7282;49.204;10.652;2023-03-11T02:52:32;2.40;;;2.20;;
14394;SDS011;7282;49.204;10.652;2023-03-11T02:54:59;2.40;;;2.30;;
14394;SDS011;7282;49.204;10.652;2023-03-11T02:57:26;2.27;;;2.17;;
14394;SDS011;7282;49.204;10.652;2023-03-11T02:59:53;2.20;;;2.10;;
14394;SDS011;7282;49.204;10.652;2023-03-11T03:02:19;2.37;;;2.00;;
14394;SDS011;7282;49.204;10.652;2023-03-11T03:04:46;2.50;;;2.30;;
14394;SDS011;7282;49.204;10.652;2023-03-11T03:07:13;2.50;;;2.30;;
14394;SDS011;7282;49.204;10.652;2023-03-11T03:09:40;2.47;;;2.20;;
14394;SDS011;7282;49.204;10.652;2023-03-11T03:12:06;2.30;;;2.10;;
14394;SDS011;7282;49.204;10.652;2023-03-11T03:14:33;2.10;;;1.90;;
14394;SDS011;7282;49.204;10.652;2023-03-11T03:17:00;2.20;;;2.00;;
14394;SDS011;7282;49.204;10.652;2023-03-11T03:19:27;2.17;;;1.97;;
14394;SDS011;7282;49.204;10.652;2023-03-11T03:21:53;2.60;;;2.00;;
14394;SDS011;7282;49.204;10.652;2023-03-11T03:24:20;2.70;;;1.80;;
14394;SDS011;7282;49.204;10.652;2023-03-11T03:26:47;2.40;;;1.70;;
14394;SDS011;7282;49.204;10.652;2023-03-11T03:29:13;1.73;;;1.60;;
14394;SDS011;7282;49.204;10.652;2023-03-11T03:31:40;2.23;;;1.60;;
14394;SDS011;7282;49.204;10.652;2023-03-11T03:34:07;3.30;;;1.80;;
14394;SDS011;7282;49.204;10.652;2023-03-11T03:36:33;2.13;;;1.50;;
14394;SDS011;7282;49.204;10.652;2023-03-11T03:39:00;1.77;;;1.67;;
14394;SDS011;7282;49.204;10.652;2023-03-11T03:41:27;2.43;;;1.70;;
14394;SDS011;7282;49.204;10.652;2023-03-11T03:43:54;2.67;;;1.43;;
14394;SDS011;7282;49.204;10.652;2023-03-11T03:46:20;2.17;;;1.60;;
14394;SDS011;7282;49.204;10.652;2023-03-11T03:48:47;1.73;;;1.63;;
14394;SDS011;7282;49.204;10.652;2023-03-11T03:51:14;1.87;;;1.50;;
14394;SDS011;7282;49.204;10.652;2023-03-11T03:53:41;1.70;;;1.53;;
14394;SDS011;7282;49.204;10.652;2023-03-11T03:56:09;2.77;;;1.57;;
14394;SDS011;7282;49.204;10.652;2023-03-11T03:58:36;1.67;;;1.57;;
14394;SDS011;7282;49.204;10.652;2023-03-11T04:01:03;2.10;;;1.60;;
14394;SDS011;7282;49.204;10.652;2023-03-11T04:03:30;1.50;;;1.40;;
14394;SDS011;7282;49.204;10.652;2023-03-11T04:06:16;1.70;;;1.60;;
14394;SDS011;7282;49.204;10.652;2023-03-11T04:08:43;1.70;;;1.40;;
14394;SDS011;7282;49.204;10.652;2023-03-11T04:11:10;3.83;;;1.70;;
14394;SDS011;7282;49.204;10.652;2023-03-11T04:13:37;2.30;;;1.83;;
14394;SDS011;7282;49.204;10.652;2023-03-11T04:16:04;2.70;;;1.80;;
14394;SDS011;7282;49.204;10.652;2023-03-11T04:18:31;3.77;;;1.73;;
14394;SDS011;7282;49.204;10.652;2023-03-11T04:20:58;2.80;;;1.80;;
14394;SDS011;7282;49.204;10.652;2023-03-11T04:23:24;3.40;;;1.80;;
14394;SDS011;7282;49.204;10.652;2023-03-11T04:25:51;3.40;;;1.80;;
14394;SDS011;7282;49.204;10.652;2023-03-11T04:28:18;3.73;;;2.00;;
14394;SDS011;7282;49.204;10.652;2023-03-11T04:30:45;3.07;;;1.80;;
14394;SDS011;7282;49.204;10.652;2023-03-11T04:33:11;2.27;;;1.90;;
14394;SDS011;7282;49.204;10.652;2023-03-11T04:35:38;2.63;;;2.10;;
14394;SDS011;7282;49.204;10.652;2023-03-11T04:38:05;2.47;;;1.60;;
14394;SDS011;7282;49.204;10.652;2023-03-11T04:40:32;2.30;;;1.83;;
14394;SDS011;7282;49.204;10.652;2023-03-11T04:42:58;2.33;;;1.80;;
14394;SDS011;7282;49.204;10.652;2023-03-11T04:45:25;1.90;;;1.50;;
14394;SDS011;7282;49.204;10.652;2023-03-11T04:47:52;1.80;;;1.70;;
14394;SDS011;7282;49.204;10.652;2023-03-11T04:50:18;2.40;;;1.60;;
14394;SDS011;7282;49.204;10.652;2023-03-11T04:52:45;4.97;;;1.93;;
14394;SDS011;7282;49.204;10.652;2023-03-11T04:55:12;4.20;;;1.93;;
14394;SDS011;7282;49.204;10.652;2023-03-11T04:57:40;2.10;;;1.90;;
14394;SDS011;7282;49.204;10.652;2023-03-11T05:00:09;2.63;;;1.93;;
14394;SDS011;7282;49.204;10.652;2023-03-11T05:02:37;3.77;;;2.10;;
14394;SDS011;7282;49.204;10.652;2023-03-11T05:05:05;2.13;;;2.00;;
14394;SDS011;7282;49.204;10.652;2023-03-11T05:07:32;2.40;;;1.70;;
14394;SDS011;7282;49.204;10.652;2023-03-11T05:09:58;2.90;;;2.13;;
14394;SDS011;7282;49.204;10.652;2023-03-11T05:12:25;2.40;;;1.70;;
14394;SDS011;7282;49.204;10.652;2023-03-11T05:14:52;3.07;;;2.20;;
14394;SDS011;7282;49.204;10.652;2023-03-11T05:17:19;2.33;;;1.73;;
14394;SDS011;7282;49.204;10.652;2023-03-11T05:19:45;2.93;;;1.80;;
14394;SDS011;7282;49.204;10.652;2023-03-11T05:22:12;2.77;;;2.10;;
14394;SDS011;7282;49.204;10.652;2023-03-11T05:24:39;2.00;;;1.90;;
14394;SDS011;7282;49.204;10.652;2023-03-11T05:27:05;2.27;;;2.00;;
14394;SDS011;7282;49.204;10.652;2023-03-11T05:29:32;6.37;;;2.53;;
14394;SDS011;7282;49.204;10.652;2023-03-11T05:31:59;2.10;;;2.00;;
14394;SDS011;7282;49.204;10.652;2023-03-11T05:34:25;2.23;;;1.90;;
14394;SDS011;7282;49.204;10.652;2023-03-11T05:36:52;2.70;;;2.03;;
14394;SDS011;7282;49.204;10.652;2023-03-11T05:39:19;3.10;;;2.00;;
14394;SDS011;7282;49.204;10.652;2023-03-11T05:41:45;2.53;;;2.00;;
14394;SDS011;7282;49.204;10.652;2023-03-11T05:44:12;2.50;;;2.30;;
14394;SDS011;7282;49.204;10.652;2023-03-11T05:46:41;4.47;;;1.80;;
14394;SDS011;7282;49.204;10.652;2023-03-11T05:49:08;2.50;;;2.07;;
14394;SDS011;7282;49.204;10.652;2023-03-11T05:51:35;3.87;;;2.20;;
14394;SDS011;7282;49.204;10.652;2023-03-11T05:54:03;2.77;;;2.17;;
14394;SDS011;7282;49.204;10.652;2023-03-11T05:56:29;4.30;;;1.80;;
14394;SDS011;7282;49.204;10.652;2023-03-11T05:58:56;2.67;;;2.47;;
14394;SDS011;7282;49.204;10.652;2023-03-11T06:01:23;2.87;;;2.17;;
14394;SDS011;7282;49.204;10.652;2023-03-11T06:03:50;8.90;;;2.43;;
14394;SDS011;7282;49.204;10.652;2023-03-11T06:06:16;5.63;;;2.33;;
14394;SDS011;7282;49.204;10.652;2023-03-11T06:08:43;4.33;;;2.20;;
14394;SDS011;7282;49.204;10.652;2023-03-11T06:11:12;4.60;;;2.10;;
14394;SDS011;7282;49.204;10.652;2023-03-11T06:13:39;3.77;;;2.23;;
14394;SDS011;7282;49.204;10.652;2023-03-11T06:16:05;2.43;;;2.20;;
14394;SDS011;7282;49.204;10.652;2023-03-11T06:18:32;3.97;;;2.23;;
14394;SDS011;7282;49.204;10.652;2023-03-11T06:21:00;5.30;;;2.00;;
14394;SDS011;7282;49.204;10.652;2023-03-11T06:23:27;4.10;;;2.10;;
14394;SDS011;7282;49.204;10.652;2023-03-11T06:25:55;3.93;;;2.20;;
14394;SDS011;7282;49.204;10.652;2023-03-11T06:28:21;3.83;;;2.23;;
14394;SDS011;7282;49.204;10.652;2023-03-11T06:30:48;3.13;;;2.20;;
14394;SDS011;7282;49.204;10.652;2023-03-11T06:33:15;3.87;;;2.27;;
14394;SDS011;7282;49.204;10.652;2023-03-11T06:35:42;4.40;;;2.20;;
14394;SDS011;7282;49.204;10.652;2023-03-11T06:38:08;3.07;;;2.40;;
14394;SDS011;7282;49.204;10.652;2023-03-11T06:40:35;2.53;;;2.10;;
14394;SDS011;7282;49.204;10.652;2023-03-11T06:43:03;4.27;;;2.50;;
14394;SDS011;7282;49.204;10.652;2023-03-11T06:45:29;4.37;;;2.27;;
14394;SDS011;7282;49.204;10.652;2023-03-11T06:47:56;2.37;;;2.10;;
14394;SDS011;7282;49.204;10.652;2023-03-11T06:50:23;4.87;;;2.10;;
14394;SDS011;7282;49.204;10.652;2023-03-11T06:52:50;2.23;;;2.03;;
14394;SDS011;7282;49.204;10.652;2023-03-11T06:55:17;4.10;;;1.93;;
14394;SDS011;7282;49.204;10.652;2023-03-11T06:57:46;4.83;;;2.10;;
14394;SDS011;7282;49.204;10.652;2023-03-11T07:00:13;4.27;;;2.30;;
14394;SDS011;7282;49.204;10.652;2023-03-11T07:02:39;6.37;;;2.77;;
14394;SDS011;7282;49.204;10.652;2023-03-11T07:05:06;2.90;;;2.37;;
14394;SDS011;7282;49.204;10.652;2023-03-11T07:07:33;3.47;;;2.20;;
14394;SDS011;7282;49.204;10.652;2023-03-11T07:10:00;5.30;;;2.20;;
14394;SDS011;7282;49.204;10.652;2023-03-11T07:12:26;4.10;;;2.73;;
14394;SDS011;7282;49.204;10.652;2023-03-11T07:14:56;4.03;;;2.60;;
14394;SDS011;7282;49.204;10.652;2023-03-11T07:17:23;2.23;;;2.03;;
14394;SDS011;7282;49.204;10.652;2023-03-11T07:19:50;2.70;;;2.23;;
14394;SDS011;7282;49.204;10.652;2023-03-11T07:22:17;5.23;;;2.27;;
14394;SDS011;7282;49.204;10.652;2023-03-11T07:24:44;4.53;;;2.60;;
14394;SDS011;7282;49.204;10.652;2023-03-11T07:27:12;6.40;;;2.50;;
14394;SDS011;7282;49.204;10.652;2023-03-11T07:29:39;3.40;;;2.20;;
14394;SDS011;7282;49.204;10.652;2023-03-11T07:32:06;3.23;;;2.47;;
14394;SDS011;7282;49.204;10.652;2023-03-11T07:34:33;4.47;;;2.50;;
14394;SDS011;7282;49.204;10.652;2023-03-11T07:37:00;3.30;;;2.40;;
14394;SDS011;7282;49.204;10.652;2023-03-11T07:39:26;2.70;;;2.20;;
14394;SDS011;7282;49.204;10.652;2023-03-11T07:41:53;5.10;;;2.43;;
14394;SDS011;7282;49.204;10.652;2023-03-11T07:44:20;2.77;;;2.17;;
14394;SDS011;7282;49.204;10.652;2023-03-11T07:46:46;4.40;;;2.20;;
14394;SDS011;7282;49.204;10.652;2023-03-11T07:49:13;2.50;;;2.30;;
14394;SDS011;7282;49.204;10.652;2023-03-11T07:51:40;4.80;;;2.23;;
14394;SDS011;7282;49.204;10.652;2023-03-11T07:54:09;7.03;;;2.50;;
14394;SDS011;7282;49.204;10.652;2023-03-11T07:56:36;4.37;;;2.40;;
14394;SDS011;7282;49.204;10.652;2023-03-11T07:59:03;6.53;;;2.47;;
14394;SDS011;7282;49.204;10.652;2023-03-11T08:01:31;7.40;;;2.53;;
14394;SDS011;7282;49.204;10.652;2023-03-11T08:04:00;4.83;;;2.33;;
14394;SDS011;7282;49.204;10.652;2023-03-11T08:06:28;3.23;;;2.37;;
14394;SDS011;7282;49.204;10.652;2023-03-11T08:09:01;3.60;;;2.30;;
14394;SDS011;7282;49.204;10.652;2023-03-11T08:11:24;7.67;;;2.33;;
14394;SDS011;7282;49.204;10.652;2023-03-11T08:13:56;3.43;;;2.30;;
14394;SDS011;7282;49.204;10.652;2023-03-11T08:16:20;4.90;;;2.67;;
14394;SDS011;7282;49.204;10.652;2023-03-11T08:18:48;4.37;;;2.70;;
14394;SDS011;7282;49.204;10.652;2023-03-11T08:21:20;3.87;;;2.50;;
14394;SDS011;7282;49.204;10.652;2023-03-11T08:23:43;4.33;;;2.83;;
14394;SDS011;7282;49.204;10.652;2023-03-11T08:26:14;7.23;;;3.00;;
14394;SDS011;7282;49.204;10.652;2023-03-11T08:28:41;3.73;;;2.37;;
14394;SDS011;7282;49.204;10.652;2023-03-11T08:31:12;6.80;;;3.57;;
14394;SDS011;7282;49.204;10.652;2023-03-11T08:33:39;3.87;;;2.43;;
14394;SDS011;7282;49.204;10.652;2023-03-11T08:36:06;3.83;;;2.93;;
14394;SDS011;7282;49.204;10.652;2023-03-11T08:38:33;4.27;;;3.10;;
14394;SDS011;7282;49.204;10.652;2023-03-11T08:41:00;6.30;;;3.03;;
14394;SDS011;7282;49.204;10.652;2023-03-11T08:43:26;4.37;;;2.70;;
14394;SDS011;7282;49.204;10.652;2023-03-11T08:45:53;5.37;;;2.70;;
14394;SDS011;7282;49.204;10.652;2023-03-11T08:48:20;3.73;;;2.80;;
14394;SDS011;7282;49.204;10.652;2023-03-11T08:50:48;2.80;;;2.47;;
14394;SDS011;7282;49.204;10.652;2023-03-11T08:53:15;5.03;;;3.07;;
14394;SDS011;7282;49.204;10.652;2023-03-11T08:55:41;4.77;;;2.80;;
14394;SDS011;7282;49.204;10.652;2023-03-11T08:58:08;3.43;;;2.60;;
14394;SDS011;7282;49.204;10.652;2023-03-11T09:00:35;3.77;;;3.47;;
14394;SDS011;7282;49.204;10.652;2023-03-11T09:03:01;4.03;;;2.70;;
14394;SDS011;7282;49.204;10.652;2023-03-11T09:05:28;6.43;;;3.03;;
14394;SDS011;7282;49.204;10.652;2023-03-11T09:07:55;5.70;;;3.10;;
14394;SDS011;7282;49.204;10.652;2023-03-11T09:10:22;4.20;;;2.80;;
14394;SDS011;7282;49.204;10.652;2023-03-11T09:12:48;3.03;;;2.60;;
14394;SDS011;7282;49.204;10.652;2023-03-11T09:15:15;2.87;;;2.40;;
14394;SDS011;7282;49.204;10.652;2023-03-11T09:17:42;3.10;;;2.80;;
14394;SDS011;7282;49.204;10.652;2023-03-11T09:20:11;3.90;;;2.73;;
14394;SDS011;7282;49.204;10.652;2023-03-11T09:22:37;6.30;;;2.80;;
14394;SDS011;7282;49.204;10.652;2023-03-11T09:25:04;3.73;;;2.57;;
14394;SDS011;7282;49.204;10.652;2023-03-11T09:27:31;4.93;;;2.70;;
14394;SDS011;7282;49.204;10.652;2023-03-11T09:29:57;5.17;;;2.97;;
14394;SDS011;7282;49.204;10.652;2023-03-11T09:32:24;4.87;;;3.30;;
14394;SDS011;7282;49.204;10.652;2023-03-11T09:34:51;3.00;;;2.50;;
14394;SDS011;7282;49.204;10.652;2023-03-11T09:37:18;3.50;;;2.47;;
14394;SDS011;7282;49.204;10.652;2023-03-11T09:39:44;4.50;;;2.40;;
14394;SDS011;7282;49.204;10.652;2023-03-11T09:45:32;7.30;;;3.03;;
14394;SDS011;7282;49.204;10.652;2023-03-11T09:47:35;4.87;;;3.13;;
14394;SDS011;7282;49.204;10.652;2023-03-11T09:50:05;3.83;;;3.20;;
14394;SDS011;7282;49.204;10.652;2023-03-11T09:54:59;2.73;;;2.50;;
14394;SDS011;7282;49.204;10.652;2023-03-11T09:57:28;6.30;;;3.20;;
14394;SDS011;7282;49.204;10.652;2023-03-11T09:59:56;4.23;;;2.73;;
14394;SDS011;7282;49.204;10.652;2023-03-11T10:02:23;3.83;;;2.87;;
14394;SDS011;7282;49.204;10.652;2023-03-11T10:04:56;4.10;;;2.90;;
14394;SDS011;7282;49.204;10.652;2023-03-11T10:07:25;3.03;;;2.33;;
14394;SDS011;7282;49.204;10.652;2023-03-11T10:09:52;2.30;;;2.10;;
14394;SDS011;7282;49.204;10.652;2023-03-11T10:12:27;4.67;;;3.20;;
14394;SDS011;7282;49.204;10.652;2023-03-11T10:14:55;3.17;;;2.50;;
14394;SDS011;7282;49.204;10.652;2023-03-11T10:17:31;4.27;;;2.60;;
14394;SDS011;7282;49.204;10.652;2023-03-11T10:20:38;2.63;;;2.33;;
14394;SDS011;7282;49.204;10.652;2023-03-11T10:28:13;2.43;;;2.13;;
14394;SDS011;7282;49.204;10.652;2023-03-11T10:30:46;2.47;;;2.00;;
14394;SDS011;7282;49.204;10.652;2023-03-11T10:35:46;2.77;;;2.17;;
14394;SDS011;7282;49.204;10.652;2023-03-11T10:38:14;2.63;;;1.93;;
14394;SDS011;7282;49.204;10.652;2023-03-11T10:40:43;3.77;;;2.17;;
14394;SDS011;7282;49.204;10.652;2023-03-11T10:43:12;2.23;;;2.00;;
14394;SDS011;7282;49.204;10.652;2023-03-11T10:45:40;3.03;;;2.40;;
14394;SDS011;7282;49.204;10.652;2023-03-11T10:48:09;2.47;;;2.23;;
14394;SDS011;7282;49.204;10.652;2023-03-11T10:50:39;3.93;;;2.50;;
14394;SDS011;7282;49.204;10.652;2023-03-11T10:53:12;3.20;;;2.30;;
14394;SDS011;7282;49.204;10.652;2023-03-11T10:55:34;3.00;;;2.50;;
14394;SDS011;7282;49.204;10.652;2023-03-11T10:58:11;6.10;;;2.67;;
14394;SDS011;7282;49.204;10.652;2023-03-11T11:00:36;5.40;;;2.43;;
14394;SDS011;7282;49.204;10.652;2023-03-11T11:03:02;2.50;;;2.30;;
14394;SDS011;7282;49.204;10.652;2023-03-11T11:05:32;4.67;;;2.30;;
14394;SDS011;7282;49.204;10.652;2023-03-11T11:08:06;2.33;;;2.13;;
14394;SDS011;7282;49.204;10.652;2023-03-11T11:10:36;2.80;;;2.40;;
14394;SDS011;7282;49.204;10.652;2023-03-11T11:15:40;3.70;;;2.60;;
14394;SDS011;7282;49.204;10.652;2023-03-11T11:18:26;3.53;;;2.33;;
14394;SDS011;7282;49.204;10.652;2023-03-11T11:20:55;3.17;;;2.30;;
14394;SDS011;7282;49.204;10.652;2023-03-11T11:23:30;2.67;;;2.47;;
14394;SDS011;7282;49.204;10.652;2023-03-11T11:25:59;2.47;;;2.27;;
14394;SDS011;7282;49.204;10.652;2023-03-11T11:28:22;2.73;;;2.40;;
14394;SDS011;7282;49.204;10.652;2023-03-11T11:30:53;2.40;;;2.17;;
14394;SDS011;7282;49.204;10.652;2023-03-11T11:33:27;3.23;;;2.67;;
14394;SDS011;7282;49.204;10.652;2023-03-11T11:36:05;5.43;;;2.70;;
14394;SDS011;7282;49.204;10.652;2023-03-11T11:38:29;4.03;;;2.27;;
14394;SDS011;7282;49.204;10.652;2023-03-11T11:40:57;3.47;;;2.37;;
14394;SDS011;7282;49.204;10.652;2023-03-11T11:43:30;2.70;;;2.50;;
14394;SDS011;7282;49.204;10.652;2023-03-11T11:45:56;2.47;;;2.27;;
14394;SDS011;7282;49.204;10.652;2023-03-11T11:51:16;3.00;;;2.30;;
14394;SDS011;7282;49.204;10.652;2023-03-11T11:53:43;4.20;;;3.23;;
14394;SDS011;7282;49.204;10.652;2023-03-11T11:56:11;3.13;;;2.60;;
14394;SDS011;7282;49.204;10.652;2023-03-11T11:58:38;5.50;;;2.37;;
14394;SDS011;7282;49.204;10.652;2023-03-11T12:01:16;2.80;;;2.30;;
14394;SDS011;7282;49.204;10.652;2023-03-11T12:04:05;4.20;;;2.70;;
14394;SDS011;7282;49.204;10.652;2023-03-11T12:09:11;3.00;;;2.30;;
14394;SDS011;7282;49.204;10.652;2023-03-11T12:16:50;2.70;;;1.93;;
14394;SDS011;7282;49.204;10.652;2023-03-11T12:19:21;2.13;;;1.87;;
14394;SDS011;7282;49.204;10.652;2023-03-11T12:21:54;2.50;;;2.20;;
14394;SDS011;7282;49.204;10.652;2023-03-11T12:26:53;3.80;;;2.80;;
14394;SDS011;7282;49.204;10.652;2023-03-11T12:29:37;3.93;;;2.63;;
14394;SDS011;7282;49.204;10.652;2023-03-11T12:32:04;4.23;;;2.63;;
14394;SDS011;7282;49.204;10.652;2023-03-11T12:34:33;3.50;;;2.50;;
14394;SDS011;7282;49.204;10.652;2023-03-11T12:37:00;3.27;;;2.40;;
14394;SDS011;7282;49.204;10.652;2023-03-11T12:39:31;3.00;;;2.70;;
14394;SDS011;7282;49.204;10.652;2023-03-11T12:44:42;4.47;;;2.97;;
14394;SDS011;7282;49.204;10.652;2023-03-11T12:49:39;2.60;;;2.30;;
14394;SDS011;7282;49.204;10.652;2023-03-11T12:54:41;3.43;;;2.90;;
14394;SDS011;7282;49.204;10.652;2023-03-11T13:12:43;4.53;;;2.33;;
14394;SDS011;7282;49.204;10.652;2023-03-11T13:17:57;2.90;;;2.40;;
14394;SDS011;7282;49.204;10.652;2023-03-11T13:23:17;2.50;;;2.20;;
14394;SDS011;7282;49.204;10.652;2023-03-11T13:26:12;3.03;;;2.60;;
14394;SDS011;7282;49.204;10.652;2023-03-11T13:30:49;2.70;;;2.50;;
14394;SDS011;7282;49.204;10.652;2023-03-11T13:33:22;3.97;;;2.50;;
14394;SDS011;7282;49.204;10.652;2023-03-11T13:41:16;2.70;;;2.27;;
14394;SDS011;7282;49.204;10.652;2023-03-11T13:43:48;3.87;;;2.37;;
14394;SDS011;7282;49.204;10.652;2023-03-11T13:46:33;2.80;;;2.37;;
14394;SDS011;7282;49.204;10.652;2023-03-11T13:51:41;3.37;;;2.00;;
14394;SDS011;7282;49.204;10.652;2023-03-11T13:56:48;3.13;;;2.13;;
14394;SDS011;7282;49.204;10.652;2023-03-11T14:01:52;2.73;;;2.17;;
14394;SDS011;7282;49.204;10.652;2023-03-11T14:04:19;3.73;;;2.33;;
14394;SDS011;7282;49.204;10.652;2023-03-11T14:06:47;6.10;;;2.53;;
14394;SDS011;7282;49.204;10.652;2023-03-11T14:09:17;3.77;;;2.20;;
14394;SDS011;7282;49.204;10.652;2023-03-11T14:11:42;4.43;;;2.60;;
14394;SDS011;7282;49.204;10.652;2023-03-11T14:14:36;3.17;;;2.57;;
14394;SDS011;7282;49.204;10.652;2023-03-11T14:16:40;4.63;;;2.43;;
14394;SDS011;7282;49.204;10.652;2023-03-11T14:19:15;3.00;;;2.50;;
14394;SDS011;7282;49.204;10.652;2023-03-11T14:21:42;3.90;;;2.20;;
14394;SDS011;7282;49.204;10.652;2023-03-11T14:24:19;3.00;;;2.70;;
14394;SDS011;7282;49.204;10.652;2023-03-11T14:26:48;2.73;;;2.20;;
14394;SDS011;7282;49.204;10.652;2023-03-11T14:29:20;3.23;;;2.27;;
14394;SDS011;7282;49.204;10.652;2023-03-11T14:31:44;2.87;;;2.47;;
14394;SDS011;7282;49.204;10.652;2023-03-11T14:34:21;6.00;;;2.83;;
14394;SDS011;7282;49.204;10.652;2023-03-11T14:36:54;3.93;;;2.70;;
14394;SDS011;7282;49.204;10.652;2023-03-11T14:42:39;3.10;;;2.47;;
14394;SDS011;7282;49.204;10.652;2023-03-11T14:44:22;2.93;;;2.70;;
14394;SDS011;7282;49.204;10.652;2023-03-11T14:46:49;3.53;;;2.83;;
14394;SDS011;7282;49.204;10.652;2023-03-11T14:49:20;2.67;;;2.47;;
14394;SDS011;7282;49.204;10.652;2023-03-11T14:51:51;4.73;;;2.30;;
14394;SDS011;7282;49.204;10.652;2023-03-11T14:54:18;7.27;;;2.90;;
14394;SDS011;7282;49.204;10.652;2023-03-11T14:56:47;7.43;;;2.97;;
14394;SDS011;7282;49.204;10.652;2023-03-11T14:59:26;4.33;;;3.67;;
14394;SDS011;7282;49.204;10.652;2023-03-11T15:01:45;6.47;;;3.03;;
14394;SDS011;7282;49.204;10.652;2023-03-11T15:04:32;2.80;;;2.50;;
14394;SDS011;7282;49.204;10.652;2023-03-11T15:06:50;3.90;;;3.00;;
14394;SDS011;7282;49.204;10.652;2023-03-11T15:09:15;4.80;;;2.77;;
14394;SDS011;7282;49.204;10.652;2023-03-11T15:11:43;4.33;;;2.90;;
14394;SDS011;7282;49.204;10.652;2023-03-11T15:14:30;4.83;;;3.00;;
14394;SDS011;7282;49.204;10.652;2023-03-11T15:16:41;4.23;;;2.57;;
14394;SDS011;7282;49.204;10.652;2023-03-11T15:22:03;5.80;;;2.70;;
14394;SDS011;7282;49.204;10.652;2023-03-11T15:24:30;2.33;;;2.13;;
14394;SDS011;7282;49.204;10.652;2023-03-11T15:27:04;3.23;;;2.53;;
14394;SDS011;7282;49.204;10.652;2023-03-11T15:29:32;2.97;;;2.40;;
14394;SDS011;7282;49.204;10.652;2023-03-11T15:31:59;8.10;;;2.70;;
14394;SDS011;7282;49.204;10.652;2023-03-11T15:34:28;4.50;;;2.90;;
14394;SDS011;7282;49.204;10.652;2023-03-11T15:37:00;2.57;;;2.20;;
14394;SDS011;7282;49.204;10.652;2023-03-11T15:39:39;4.70;;;2.57;;
14394;SDS011;7282;49.204;10.652;2023-03-11T15:44:28;3.10;;;2.50;;
14394;SDS011;7282;49.204;10.652;2023-03-11T15:46:55;5.30;;;2.90;;
14394;SDS011;7282;49.204;10.652;2023-03-11T15:49:24;5.30;;;2.30;;
14394;SDS011;7282;49.204;10.652;2023-03-11T15:51:51;5.83;;;2.97;;
14394;SDS011;7282;49.204;10.652;2023-03-11T15:54:18;4.43;;;2.50;;
14394;SDS011;7282;49.204;10.652;2023-03-11T15:56:45;3.57;;;2.63;;
14394;SDS011;7282;49.204;10.652;2023-03-11T15:59:12;5.13;;;3.00;;
14394;SDS011;7282;49.204;10.652;2023-03-11T16:01:40;4.70;;;2.80;;
14394;SDS011;7282;49.204;10.652;2023-03-11T16:04:12;4.70;;;2.50;;
14394;SDS011;7282;49.204;10.652;2023-03-11T16:06:35;5.43;;;3.00;;
14394;SDS011;7282;49.204;10.652;2023-03-11T16:09:02;4.70;;;2.67;;
14394;SDS011;7282;49.204;10.652;2023-03-11T16:11:30;4.40;;;2.47;;
14394;SDS011;7282;49.204;10.652;2023-03-11T16:13:58;5.27;;;2.77;;
14394;SDS011;7282;49.204;10.652;2023-03-11T16:16:24;4.53;;;2.73;;
14394;SDS011;7282;49.204;10.652;2023-03-11T16:18:51;5.23;;;2.60;;